createdAt,value
2019-02-16T00:02:26.236Z,4.46
2019-02-16T00:07:31.488Z,4.49
2019-02-16T00:12:36.688Z,4.36
2019-02-16T00:17:41.898Z,4.46
2019-02-16T00:22:47.092Z,4.51
2019-02-16T00:27:52.367Z,4.51
2019-02-16T00:32:58.692Z,4.28
2019-02-16T00:38:04.667Z,4.13
2019-02-16T00:43:09.846Z,4.13
2019-02-16T00:48:15.098Z,4.24
2019-02-16T00:53:20.652Z,4.29
2019-02-16T00:58:27.428Z,4.38
2019-02-16T01:03:33.039Z,4.38
2019-02-16T01:08:39.396Z,4.46
2019-02-16T01:13:44.694Z,4.38
2019-02-16T01:18:50.469Z,4.33
2019-02-16T01:23:55.752Z,4.40
2019-02-16T01:29:01.259Z,4.17
2019-02-16T01:34:06.900Z,4.13
2019-02-16T01:39:13.953Z,4.22
2019-02-16T01:44:19.394Z,4.43
2019-02-16T01:49:24.606Z,4.51
2019-02-16T01:54:30.169Z,4.55
2019-02-16T01:59:35.359Z,4.62
2019-02-16T02:04:40.538Z,4.60
2019-02-16T02:09:46.110Z,4.54
2019-02-16T02:14:51.900Z,4.58
2019-02-16T02:19:57.175Z,4.58
2019-02-16T02:25:03.249Z,4.46
2019-02-16T02:30:10.408Z,4.53
2019-02-16T02:35:15.590Z,4.66
2019-02-16T02:40:20.804Z,4.58
2019-02-16T02:45:25.993Z,4.68
2019-02-16T02:50:31.192Z,4.80
2019-02-16T02:55:36.376Z,4.66
2019-02-16T03:00:41.593Z,4.55
2019-02-16T03:05:46.767Z,4.47
2019-02-16T03:10:53.064Z,4.50
2019-02-16T03:16:01.407Z,4.51
2019-02-16T03:21:08.225Z,4.37
2019-02-16T03:26:41.168Z,4.30
2019-02-16T03:32:22.604Z,4.36
2019-02-16T03:37:59.353Z,4.33
2019-02-16T03:43:04.781Z,4.41
2019-02-16T03:48:10.955Z,4.33
2019-02-16T03:53:16.229Z,4.10
2019-02-16T03:58:21.407Z,3.86
2019-02-16T04:03:26.592Z,3.82
2019-02-16T04:08:31.768Z,3.60
2019-02-16T04:13:37.343Z,3.50
2019-02-16T04:18:44.064Z,3.48
2019-02-16T04:23:49.602Z,3.47
2019-02-16T04:28:54.935Z,3.31
2019-02-16T04:33:59.996Z,3.34
2019-02-16T04:39:07.403Z,3.35
2019-02-16T04:44:12.562Z,3.33
2019-02-16T04:49:19.563Z,3.41
2019-02-16T04:54:24.959Z,3.35
2019-02-16T04:59:30.285Z,3.37
2019-02-16T05:04:35.679Z,3.40
2019-02-16T05:09:40.981Z,3.36
2019-02-16T05:14:46.075Z,3.32
2019-02-16T05:19:51.205Z,3.27
2019-02-16T05:24:56.167Z,3.34
2019-02-16T05:30:01.603Z,3.30
2019-02-16T05:35:07.083Z,3.23
2019-02-16T05:40:12.211Z,3.23
2019-02-16T05:45:17.976Z,3.37
2019-02-16T05:50:23.039Z,3.46
2019-02-16T05:55:28.551Z,3.50
2019-02-16T06:00:34.400Z,3.44
2019-02-16T06:05:40.916Z,3.39
2019-02-16T06:10:46.212Z,3.26
2019-02-16T06:15:51.213Z,3.33
2019-02-16T06:20:57.164Z,3.27
2019-02-16T06:26:02.478Z,3.42
2019-02-16T06:31:08.188Z,3.36
2019-02-16T06:36:20.598Z,3.44
2019-02-16T06:41:25.738Z,3.20
2019-02-16T06:46:31.187Z,2.94
2019-02-16T06:51:36.337Z,2.79
2019-02-16T06:57:19.780Z,2.70
2019-02-16T07:02:26.080Z,2.61
2019-02-16T07:07:31.140Z,2.52
2019-02-16T07:12:36.464Z,2.54
2019-02-16T07:17:54.283Z,2.63
2019-02-16T07:22:59.417Z,2.74
2019-02-16T07:28:06.471Z,2.78
2019-02-16T07:33:11.968Z,2.78
2019-02-16T07:38:16.999Z,2.79
2019-02-16T07:43:44.121Z,2.76
2019-02-16T07:48:58.285Z,2.90
2019-02-16T07:54:21.305Z,3.04
2019-02-16T07:59:40.484Z,3.25
2019-02-16T08:05:04.600Z,3.57
2019-02-16T08:10:16.177Z,3.73
2019-02-16T08:15:30.207Z,4.02
2019-02-16T08:20:43.905Z,4.21
2019-02-16T08:26:02.012Z,4.46
2019-02-16T08:31:33.172Z,4.86
2019-02-16T08:36:47.768Z,4.93
2019-02-16T08:42:05.500Z,5.48
2019-02-16T08:47:18.739Z,5.92
2019-02-16T08:52:30.863Z,6.03
2019-02-16T08:57:44.308Z,6.26
2019-02-16T09:03:14.971Z,6.52
2019-02-16T09:08:37.673Z,6.66
2019-02-16T09:13:54.150Z,6.87
2019-02-16T09:19:28.148Z,7.22
2019-02-16T09:24:45.437Z,7.55
2019-02-16T09:30:27.641Z,7.83
2019-02-16T09:36:09.936Z,8.07
2019-02-16T09:41:30.756Z,8.26
2019-02-16T09:46:46.996Z,8.48
2019-02-16T09:52:11.362Z,8.75
2019-02-16T09:57:42.785Z,8.98
2019-02-16T10:03:06.004Z,9.41
2019-02-16T10:08:42.163Z,9.68
2019-02-16T10:14:00.791Z,9.86
2019-02-16T10:19:15.472Z,10.23
2019-02-16T10:24:52.751Z,10.48
2019-02-16T10:30:20.396Z,10.90
2019-02-16T10:35:44.051Z,11.17
2019-02-16T10:41:07.163Z,11.52
2019-02-16T10:46:27.741Z,11.79
2019-02-16T10:51:42.732Z,12.10
2019-02-16T10:56:56.689Z,12.36
2019-02-16T11:02:24.189Z,12.53
2019-02-16T11:07:41.674Z,12.87
2019-02-16T11:12:54.855Z,13.12
2019-02-16T11:18:37.457Z,13.47
2019-02-16T11:24:02.500Z,13.55
2019-02-16T11:29:25.798Z,14.02
2019-02-16T11:34:56.210Z,14.17
2019-02-16T11:40:29.509Z,14.28
2019-02-16T11:45:50.361Z,14.53
2019-02-16T11:51:02.990Z,14.81
2019-02-16T11:56:37.374Z,15.00
2019-02-16T12:02:00.678Z,15.29
2019-02-16T12:07:24.901Z,15.37
2019-02-16T12:12:58.395Z,15.45
2019-02-16T12:18:19.373Z,15.71
2019-02-16T12:23:49.810Z,15.83
2019-02-16T12:29:12.618Z,15.76
2019-02-16T12:34:29.908Z,16.04
2019-02-16T12:39:50.434Z,16.32
2019-02-16T12:45:14.586Z,16.41
2019-02-16T12:50:54.453Z,16.58
2019-02-16T12:56:15.773Z,16.62
2019-02-16T13:01:55.217Z,16.99
2019-02-16T13:07:07.227Z,17.00
2019-02-16T13:12:30.707Z,17.26
2019-02-16T13:17:54.358Z,17.49
2019-02-16T13:23:33.973Z,17.53
2019-02-16T13:29:01.193Z,17.54
2019-02-16T13:34:25.635Z,17.77
2019-02-16T13:39:57.092Z,18.07
2019-02-16T13:45:09.190Z,18.26
2019-02-16T13:50:25.414Z,18.40
2019-02-16T13:55:42.544Z,18.42
2019-02-16T14:01:07.699Z,18.50
2019-02-16T14:06:33.395Z,18.78
2019-02-16T14:11:58.573Z,18.96
2019-02-16T14:17:31.994Z,19.02
2019-02-16T14:22:37.148Z,19.13
2019-02-16T14:27:42.577Z,19.03
2019-02-16T14:32:47.731Z,19.12
2019-02-16T14:37:58.450Z,19.23
2019-02-16T14:43:03.674Z,19.20
2019-02-16T14:48:09.146Z,19.45
2019-02-16T14:53:14.297Z,19.25
2019-02-16T14:58:19.442Z,19.15
2019-02-16T15:03:24.910Z,19.34
2019-02-16T15:08:30.431Z,19.18
2019-02-16T15:13:35.923Z,19.33
2019-02-16T15:18:41.078Z,19.47
2019-02-16T15:23:46.171Z,19.00
2019-02-16T15:28:51.394Z,18.96
2019-02-16T15:33:56.614Z,18.94
2019-02-16T15:39:02.677Z,18.62
2019-02-16T15:44:10.728Z,18.09
2019-02-16T15:49:15.661Z,18.17
2019-02-16T15:54:20.813Z,18.00
2019-02-16T15:59:34.831Z,17.58
2019-02-16T16:04:33.118Z,17.08
2019-02-16T16:10:09.331Z,16.93
2019-02-16T16:15:41.571Z,16.69
2019-02-16T16:20:57.349Z,16.39
2019-02-16T16:26:21.552Z,16.04
2019-02-16T16:31:40.628Z,15.57
2019-02-16T16:36:52.662Z,15.01
2019-02-16T16:42:08.455Z,14.39
2019-02-16T16:47:23.337Z,13.90
2019-02-16T16:52:45.793Z,13.46
2019-02-16T16:58:02.310Z,12.94
2019-02-16T17:03:20.072Z,12.61
2019-02-16T17:08:40.887Z,12.58
2019-02-16T17:14:04.157Z,12.46
2019-02-16T17:19:22.829Z,12.38
2019-02-16T17:24:36.592Z,12.28
2019-02-16T17:30:00.674Z,12.18
2019-02-16T17:35:28.047Z,11.98
2019-02-16T17:40:52.718Z,11.73
2019-02-16T17:46:14.722Z,11.55
2019-02-16T17:51:51.018Z,11.35
2019-02-16T17:57:13.775Z,11.04
2019-02-16T18:02:38.244Z,10.77
2019-02-16T18:07:54.435Z,10.55
2019-02-16T18:13:25.041Z,10.48
2019-02-16T18:18:37.255Z,10.36
2019-02-16T18:23:50.306Z,10.27
2019-02-16T18:29:21.050Z,10.19
2019-02-16T18:35:03.072Z,10.17
2019-02-16T18:40:29.100Z,10.25
2019-02-16T18:45:44.098Z,9.95
2019-02-16T18:51:02.270Z,9.77
2019-02-16T18:56:25.242Z,9.72
2019-02-16T19:01:42.571Z,9.60
2019-02-16T19:06:57.661Z,9.46
2019-02-16T19:12:10.188Z,9.33
2019-02-16T19:17:34.718Z,9.10
2019-02-16T19:23:11.858Z,8.84
2019-02-16T19:28:46.181Z,8.58
2019-02-16T19:34:09.425Z,8.42
2019-02-16T19:39:20.816Z,8.39
2019-02-16T19:44:51.868Z,8.40
2019-02-16T19:50:05.930Z,8.45
2019-02-16T19:55:40.749Z,8.39
2019-02-16T20:01:05.285Z,8.34
2019-02-16T20:06:32.182Z,8.37
2019-02-16T20:12:05.900Z,8.46
2019-02-16T20:17:21.373Z,8.35
2019-02-16T20:22:34.819Z,8.27
2019-02-16T20:27:57.528Z,8.12
2019-02-16T20:33:21.749Z,8.01
2019-02-16T20:38:37.202Z,7.90
2019-02-16T20:43:59.255Z,7.68
2019-02-16T20:49:32.632Z,7.47
2019-02-16T20:54:57.031Z,7.28
2019-02-16T21:00:19.489Z,7.41
2019-02-16T21:05:38.284Z,7.57
2019-02-16T21:11:14.532Z,7.42
2019-02-16T21:16:41.809Z,7.44
2019-02-16T21:22:04.710Z,7.58
2019-02-16T21:27:39.884Z,7.40
2019-02-16T21:33:10.371Z,7.47
2019-02-16T21:38:40.708Z,7.32
2019-02-16T21:43:59.124Z,7.27
2019-02-16T21:49:24.755Z,7.11
2019-02-16T21:54:51.512Z,7.03
2019-02-16T22:00:14.541Z,6.89
2019-02-16T22:05:29.162Z,6.78
2019-02-16T22:10:44.353Z,6.73
2019-02-16T22:15:49.501Z,6.66
2019-02-16T22:20:54.806Z,6.45
2019-02-16T22:25:59.982Z,6.45
2019-02-16T22:31:05.516Z,6.55
2019-02-16T22:36:12.034Z,6.53
2019-02-16T22:41:17.305Z,6.45
2019-02-16T22:46:22.595Z,6.53
2019-02-16T22:51:28.699Z,6.54
2019-02-16T22:56:34.092Z,6.44
2019-02-16T23:01:39.840Z,6.24
2019-02-16T23:06:44.909Z,6.12
2019-02-16T23:11:50.463Z,5.92
2019-02-16T23:16:56.712Z,5.74
2019-02-16T23:22:03.217Z,5.63
2019-02-16T23:27:08.692Z,5.55
2019-02-16T23:32:14.049Z,5.47
2019-02-16T23:37:19.683Z,5.42
2019-02-16T23:42:25.322Z,5.45
2019-02-16T23:47:30.309Z,5.37
2019-02-16T23:52:36.187Z,5.19
2019-02-16T23:57:41.425Z,5.08
